Time;durP1;ratioP1;P1;durP2;ratioP2;P2;SDS_P1;SDS_P2;PMS_P1;PMS_P2;Temp;Humidity;BMP_temperature;BMP_pressure;BME280_temperature;BME280_humidity;BME280_pressure;Samples;Min_cycle;Max_cycle;Signal;HPM_P1;HPM_P2
2021/03/29 00:09:31;;;;;;;7.97;2.55;;;15.80;35.90;;;;;;20749728;28;20018;-58
2021/03/29 00:19:33;;;;;;;6.57;2.80;;;15.70;36.20;;;;;;20747524;28;20085;-54
2021/03/29 00:29:34;;;;;;;4.18;2.67;;;15.60;36.60;;;;;;20749014;28;20393;-56
2021/03/29 00:39:37;;;;;;;8.45;3.15;;;15.50;36.70;;;;;;20748764;28;20482;-56
2021/03/29 00:49:39;;;;;;;9.02;3.78;;;15.50;37.10;;;;;;20748550;28;20030;-56
2021/03/29 00:59:41;;;;;;;8.60;3.03;;;15.40;37.60;;;;;;20747729;28;20116;-57
2021/03/29 01:09:42;;;;;;;8.18;3.38;;;15.40;38.10;;;;;;20747230;28;20387;-56
2021/03/29 01:19:46;;;;;;;5.78;2.90;;;15.20;40.60;;;;;;20746495;28;20031;-57
2021/03/29 01:29:48;;;;;;;6.23;2.93;;;14.80;42.70;;;;;;20752390;28;20026;-56
2021/03/29 01:39:50;;;;;;;6.03;3.15;;;14.60;44.20;;;;;;20760864;28;20038;-56
2021/03/29 01:49:51;;;;;;;4.50;2.75;;;14.30;45.40;;;;;;20760011;28;20477;-55
2021/03/29 01:59:52;;;;;;;6.68;3.33;;;13.90;46.40;;;;;;20758765;28;20060;-56
2021/03/29 02:09:54;;;;;;;5.45;3.30;;;13.50;47.40;;;;;;20757638;28;20030;-53
2021/03/29 02:19:56;;;;;;;5.35;3.30;;;13.50;47.40;;;;;;20756838;28;20050;-56
2021/03/29 02:29:57;;;;;;;7.07;3.28;;;13.40;47.40;;;;;;20756595;28;20418;-55
2021/03/29 02:39:58;;;;;;;4.82;3.20;;;13.40;47.10;;;;;;20755779;28;20073;-56
2021/03/29 02:50:00;;;;;;;5.30;3.38;;;13.30;48.10;;;;;;20754693;28;20076;-54
2021/03/29 03:00:06;;;;;;;6.82;3.63;;;13.40;46.20;;;;;;20753997;28;20045;-54
2021/03/29 03:10:11;;;;;;;9.25;3.35;;;13.50;44.40;;;;;;20753090;28;20485;-54
2021/03/29 03:20:14;;;;;;;11.50;3.63;;;13.40;46.00;;;;;;20752202;28;20057;-54
2021/03/29 03:30:25;;;;;;;6.32;3.35;;;13.50;47.30;;;;;;20750497;28;20125;-54
2021/03/29 03:40:26;;;;;;;6.80;3.67;;;13.20;48.30;;;;;;20749959;28;20038;-56
2021/03/29 03:50:27;;;;;;;6.07;4.20;;;13.10;49.00;;;;;;20750088;28;20029;-56
2021/03/29 04:00:29;;;;;;;7.43;3.50;;;12.90;49.10;;;;;;20749937;28;20053;-55
2021/03/29 04:20:40;;;;;;;6.60;3.60;;;12.80;49.80;;;;;;20748185;28;20107;-56
2021/03/29 04:30:41;;;;;;;6.65;4.30;;;12.70;49.50;;;;;;20748707;28;20038;-55
2021/03/29 04:40:42;;;;;;;8.38;3.90;;;12.60;49.70;;;;;;20748082;28;20072;-55
2021/03/29 04:50:43;;;;;;;7.80;4.32;;;12.50;50.00;;;;;;20747291;28;20033;-56
2021/03/29 05:00:43;;;;;;;6.80;4.95;;;12.40;50.10;;;;;;20747296;28;20477;-53
2021/03/29 05:10:44;;;;;;;9.80;4.72;;;12.30;50.10;;;;;;20762444;28;20022;-53
2021/03/29 05:20:45;;;;;;;9.75;4.78;;;12.30;49.60;;;;;;20761503;28;20061;-56
2021/03/29 05:30:46;;;;;;;7.85;4.85;;;12.20;49.70;;;;;;20761953;28;20026;-54
2021/03/29 05:40:51;;;;;;;10.00;4.50;;;12.20;49.80;;;;;;20759377;28;20042;-54
2021/03/29 05:50:51;;;;;;;;;;;12.20;50.40;;;;;;20760283;28;20026;-54
2021/03/29 06:00:55;;;;;;;11.23;5.47;;;12.00;51.00;;;;;;20758667;28;19924;-56
2021/03/29 06:10:58;;;;;;;12.77;4.80;;;12.10;51.10;;;;;;20758100;28;20041;-56
2021/03/29 06:21:05;;;;;;;10.63;4.50;;;11.90;51.60;;;;;;20756730;28;20054;-57
2021/03/29 06:31:28;;;;;;;13.32;5.95;;;12.10;51.50;;;;;;20756592;28;20465;-56
2021/03/29 06:41:29;;;;;;;10.75;5.75;;;12.20;51.40;;;;;;20755910;28;20037;-54
2021/03/29 06:51:32;;;;;;;10.43;4.95;;;12.10;51.90;;;;;;20753252;28;20068;-53
2021/03/29 07:01:47;;;;;;;11.75;4.88;;;12.30;51.60;;;;;;20754145;28;20107;-56
2021/03/29 07:11:48;;;;;;;12.43;5.28;;;12.50;50.80;;;;;;20753250;28;20022;-53
2021/03/29 07:21:49;;;;;;;14.50;6.03;;;12.50;50.50;;;;;;20735089;28;20052;-56
2021/03/29 07:31:54;;;;;;;14.13;6.63;;;12.60;50.50;;;;;;20751106;28;20493;-53
2021/03/29 07:42:23;;;;;;;10.77;6.00;;;12.90;49.70;;;;;;20750696;28;20057;-55
2021/03/29 07:52:29;;;;;;;10.02;4.30;;;13.40;48.10;;;;;;20749702;28;20026;-55
2021/03/29 08:02:33;;;;;;;6.97;2.92;;;13.60;45.10;;;;;;20749161;28;20053;-55
2021/03/29 08:12:35;;;;;;;8.65;3.30;;;14.10;41.10;;;;;;20749094;28;20080;-55
2021/03/29 08:22:36;;;;;;;8.73;3.20;;;14.50;39.80;;;;;;20747968;28;20049;-56
2021/03/29 08:32:38;;;;;;;5.95;2.88;;;14.90;38.30;;;;;;20748293;28;20567;-56
2021/03/29 08:42:44;;;;;;;7.93;2.40;;;15.30;37.10;;;;;;20760943;28;20042;-57
2021/03/29 08:52:49;;;;;;;4.68;2.15;;;15.60;36.20;;;;;;20763741;28;20072;-53
2021/03/29 09:02:51;;;;;;;11.30;5.13;;;15.90;35.30;;;;;;20762937;28;20112;-55
2021/03/29 09:13:00;;;;;;;4.63;2.17;;;16.20;34.90;;;;;;20826541;28;20024;-54
2021/03/29 09:23:01;;;;;;;7.65;2.28;;;16.50;34.20;;;;;;20902750;28;20052;-61
2021/03/29 09:33:02;;;;;;;15.48;2.50;;;16.70;33.90;;;;;;20905242;28;20075;-61
2021/03/29 09:43:04;;;;;;;5.65;2.65;;;17.10;34.10;;;;;;20909330;28;20026;-58
2021/03/29 09:53:12;;;;;;;5.07;2.10;;;17.20;33.60;;;;;;20906669;28;20517;-56
2021/03/29 10:03:17;;;;;;;7.15;2.35;;;17.20;33.80;;;;;;20884550;28;20044;-58
2021/03/29 10:13:18;;;;;;;6.20;2.42;;;17.20;34.10;;;;;;20906924;28;20040;-59
2021/03/29 10:23:28;;;;;;;7.45;2.03;;;17.30;34.50;;;;;;20894905;28;20053;-61
2021/03/29 10:33:29;;;;;;;6.05;2.70;;;17.50;34.00;;;;;;20884298;28;20049;-58
2021/03/29 10:43:29;;;;;;;6.70;2.08;;;17.80;34.20;;;;;;20778503;28;20373;-60
2021/03/29 10:53:30;;;;;;;6.72;2.50;;;18.10;33.20;;;;;;20866075;28;20025;-61
2021/03/29 11:03:31;;;;;;;4.95;2.40;;;18.30;33.30;;;;;;20837860;28;20039;-62
2021/03/29 11:13:32;;;;;;;5.40;2.78;;;18.70;32.70;;;;;;20786397;28;20022;-60
2021/03/29 11:23:33;;;;;;;6.97;2.90;;;18.90;33.20;;;;;;20794932;28;20077;-55
2021/03/29 11:33:34;;;;;;;5.82;2.47;;;19.10;32.60;;;;;;20865781;28;20128;-60
2021/03/29 11:43:35;;;;;;;8.73;2.33;;;19.20;32.40;;;;;;20911371;28;20113;-58
2021/03/29 11:53:36;;;;;;;8.93;2.40;;;19.40;31.80;;;;;;20913835;28;20108;-57
2021/03/29 12:13:38;;;;;;;4.63;2.33;;;20.10;30.90;;;;;;20912901;28;20222;-56
2021/03/29 12:23:42;;;;;;;7.97;2.50;;;20.60;30.20;;;;;;20912834;28;20186;-57
2021/03/29 12:33:44;;;;;;;7.57;2.55;;;21.00;29.60;;;;;;20912911;28;20064;-57
2021/03/29 12:43:57;;;;;;;7.05;2.20;;;21.20;29.60;;;;;;20912250;28;20040;-57
2021/03/29 12:54:12;;;;;;;4.03;2.40;;;21.50;29.10;;;;;;20911913;28;20052;-56
2021/03/29 13:15:04;;;;;;;8.57;2.10;;;21.90;27.40;;;;;;20738401;28;20363;-57
2021/03/29 13:25:06;;;;;;;7.90;2.13;;;22.30;26.30;;;;;;20742142;28;20402;-56
2021/03/29 13:35:07;;;;;;;9.90;2.33;;;22.70;25.60;;;;;;20752810;28;20042;-57
2021/03/29 13:45:09;;;;;;;6.82;2.00;;;22.80;25.10;;;;;;20773153;28;20046;-58
2021/03/29 13:55:13;;;;;;;7.35;2.20;;;22.90;25.00;;;;;;20841552;28;20021;-57
2021/03/29 14:05:15;;;;;;;11.45;3.63;;;22.70;25.50;;;;;;20840817;28;20029;-58
2021/03/29 14:15:16;;;;;;;6.47;2.10;;;22.70;25.80;;;;;;20839683;28;20026;-56
2021/03/29 14:25:20;;;;;;;8.10;2.53;;;23.00;25.70;;;;;;20827699;28;20183;-56
2021/03/29 14:45:24;;;;;;;9.48;2.70;;;22.70;27.00;;;;;;20754258;28;20041;-56
2021/03/29 14:55:27;;;;;;;7.03;2.30;;;22.70;27.10;;;;;;20793721;28;20022;-56
2021/03/29 15:05:34;;;;;;;9.43;3.50;;;22.90;26.70;;;;;;20852163;28;20043;-56
2021/03/29 15:15:35;;;;;;;5.80;1.88;;;22.70;27.10;;;;;;20862105;28;20022;-56
2021/03/29 15:25:36;;;;;;;10.02;2.63;;;22.30;27.50;;;;;;20855337;28;20162;-57
2021/03/29 15:35:37;;;;;;;8.10;2.35;;;22.10;27.80;;;;;;20857600;28;20032;-57
2021/03/29 15:45:38;;;;;;;10.63;2.90;;;21.90;29.10;;;;;;20826616;28;20053;-58
2021/03/29 15:55:39;;;;;;;11.23;2.20;;;21.70;29.40;;;;;;20831770;28;20362;-58
2021/03/29 16:05:39;;;;;;;11.18;2.70;;;21.70;29.40;;;;;;20830916;28;20033;-57
2021/03/29 16:15:40;;;;;;;5.38;2.20;;;21.50;30.30;;;;;;20830748;28;20048;-57
2021/03/29 16:25:45;;;;;;;11.85;3.88;;;21.40;30.20;;;;;;20827235;28;20100;-56
2021/03/29 16:35:46;;;;;;;10.88;2.35;;;21.20;30.50;;;;;;20830611;28;20037;-57
2021/03/29 16:45:48;;;;;;;9.20;2.65;;;21.20;30.70;;;;;;20830572;28;20084;-57
2021/03/29 16:55:49;;;;;;;15.98;4.40;;;21.10;30.60;;;;;;20830144;28;20104;-56
2021/03/29 17:05:50;;;;;;;10.13;2.80;;;21.10;30.60;;;;;;20845221;28;20128;-56
2021/03/29 17:15:51;;;;;;;10.00;3.28;;;21.00;30.80;;;;;;20847428;28;20044;-53
2021/03/29 17:25:52;;;;;;;12.07;4.40;;;21.00;31.00;;;;;;20916628;28;20081;-57
2021/03/29 17:35:52;;;;;;;8.98;3.13;;;20.90;31.20;;;;;;20924997;28;20033;-56
2021/03/29 17:45:53;;;;;;;10.45;4.10;;;20.70;31.70;;;;;;20914493;28;20041;-59
2021/03/29 17:55:54;;;;;;;12.30;3.28;;;20.70;32.20;;;;;;20849973;28;20022;-55
2021/03/29 18:05:55;;;;;;;8.77;3.30;;;20.50;32.70;;;;;;20859992;28;20143;-58
2021/03/29 18:15:55;;;;;;;13.38;3.75;;;20.30;33.10;;;;;;20897365;28;20104;-58
2021/03/29 18:25:56;;;;;;;11.93;3.53;;;20.10;33.90;;;;;;20913066;28;20389;-59
2021/03/29 18:35:58;;;;;;;10.63;2.92;;;19.90;34.60;;;;;;20906818;28;20040;-57
2021/03/29 18:45:59;;;;;;;8.45;2.72;;;19.70;34.10;;;;;;20919982;28;20053;-56
2021/03/29 19:06:10;;;;;;;11.10;3.45;;;19.20;35.20;;;;;;20919112;28;20041;-59
2021/03/29 19:16:10;;;;;;;8.60;3.72;;;19.10;35.50;;;;;;20897579;28;20025;-59
2021/03/29 19:26:16;;;;;;;6.63;3.17;;;19.00;35.80;;;;;;20915602;28;20064;-59
2021/03/29 19:36:17;;;;;;;5.88;2.80;;;18.70;36.10;;;;;;20916541;28;20121;-59
2021/03/29 19:46:18;;;;;;;7.97;3.17;;;18.60;36.30;;;;;;20915296;28;20041;-57
2021/03/29 19:56:19;;;;;;;8.15;2.72;;;18.40;36.80;;;;;;20915933;28;20111;-58
2021/03/29 20:16:26;;;;;;;6.07;2.60;;;18.00;37.20;;;;;;20914044;28;20036;-57
2021/03/29 20:26:28;;;;;;;7.05;2.85;;;17.90;37.40;;;;;;20912853;28;20087;-58
2021/03/29 20:36:30;;;;;;;5.70;2.90;;;;;;;;;;20912463;28;20049;-58
2021/03/29 20:46:34;;;;;;;9.15;3.08;;;;;;;;;;20911716;28;20037;-58
2021/03/29 20:56:35;;;;;;;;;;;;;;;;;;20912577;28;20027;-57
2021/03/29 21:06:36;;;;;;;5.85;3.13;;;;;;;;;;20911353;28;19952;-58
2021/03/29 21:16:37;;;;;;;8.90;2.88;;;17.90;37.00;;;;;;20911016;28;20032;-57
2021/03/29 21:26:38;;;;;;;7.07;3.28;;;17.30;37.80;;;;;;20910647;28;20053;-60
2021/03/29 21:36:39;;;;;;;8.45;3.03;;;17.20;37.80;;;;;;20911515;28;20028;-58
2021/03/29 21:46:40;;;;;;;6.82;2.50;;;17.20;37.80;;;;;;20916549;28;20037;-57
2021/03/29 21:56:41;;;;;;;7.55;3.05;;;17.00;38.00;;;;;;20906359;28;20115;-58
2021/03/29 22:06:42;;;;;;;6.38;2.90;;;16.90;38.20;;;;;;20923737;28;20463;-58
2021/03/29 22:16:43;;;;;;;6.43;3.10;;;16.80;38.20;;;;;;20922757;28;20043;-57
2021/03/29 22:26:44;;;;;;;9.27;3.15;;;16.80;38.20;;;;;;20921738;28;20048;-57
2021/03/29 22:46:48;;;;;;;9.00;2.80;;;16.70;38.50;;;;;;20920267;28;20507;-57
2021/03/29 22:56:49;;;;;;;8.88;3.08;;;16.60;38.60;;;;;;20920109;28;20128;-57
2021/03/29 23:06:49;;;;;;;9.27;2.72;;;16.60;38.50;;;;;;20917355;28;20052;-56
2021/03/29 23:16:50;;;;;;;7.68;3.00;;;16.50;38.70;;;;;;20916791;28;20040;-57
2021/03/29 23:26:51;;;;;;;8.13;2.85;;;16.40;39.00;;;;;;20917735;28;20049;-57
2021/03/29 23:36:52;;;;;;;5.90;2.53;;;16.30;39.30;;;;;;20917953;28;20124;-58
2021/03/29 23:46:54;;;;;;;7.47;2.28;;;16.30;39.50;;;;;;20916621;28;20036;-57
2021/03/29 23:56:55;;;;;;;6.53;2.25;;;16.20;39.30;;;;;;20916815;28;20112;-57
